Bastrop, TX

9:07 AM CDT on September 02, 2015 (GMT -0500)
Tahitian Village | | Change Station
CLOSE
Current Station
Personal Weather Station
Location: Bastrop, TX
Elevation: 472 ft
Nearby Weather Stations

Elev 472 ft 30.08 °N, 97.29 °W | Updated 8 seconds ago

Overcast
Overcast
75.9 °F
Feels Like 78 °F
N
0.0
Wind Variable Wind from North
Gusts 0.0 mph

Today
High -- | Low -- °F
--% Chance of Precip.
Yesterday
High -- | Low -- °F
Precip. -- in
7:06 AM 7:50 PM
Waning Gibbous, 80% visible
Pressure 30.10 in
Visibility 10.0 miles
Clouds Scattered Clouds 600 ft
Mostly Cloudy 1400 ft
Mostly Cloudy 2200 ft
Heat Index 78 °F
Dew Point 62 °F
Humidity 63%
Rainfall 0.00 in
Snow Depth Not available.
UV 1 out of 12
Pollen 6.80 out of 12
Air Quality Not available.
Flu Activity Not available.
METAR KGYB 021355Z AUTO 07003KT 10SM SCT006 BKN014 BKN022 23/22 A3010 RMK AO2 T02300219
Pressure 30.10 in
Visibility 10.0 miles
Clouds Scattered Clouds 600 ft
Mostly Cloudy 1400 ft
Mostly Cloudy 2200 ft
Heat Index 78 °F
Dew Point 62 °F
Humidity 63%
Rainfall 0.00 in
Snow Depth Not available.
UV 1 out of 12
Pollen 6.80 out of 12
Air Quality Not available.
Flu Activity Not available.
METAR KGYB 021355Z AUTO 07003KT 10SM SCT006 BKN014 BKN022 23/22 A3010 RMK AO2 T02300219

10-Day Weather Forecast

×

Almanac

Astronomy

Sep. 02, 2015 Rise Set
Actual Time
Civil Twilight
Nautical Twilight
Astronomical Twilight
Moon
Length of Visible Light
Length of Day
Tomorrow will be .
, % of the Moon is Illuminated

Today's Extremes

State Highs State Lows

Community

WunderPhotos

Upload Photos

1,851,759 photos uploaded!

WunderBlogs® & News

Nearby

Air Quality

  Air Quality AQ Index Pollutant
Not available.

Snow Depth

Station Depth Elevation

Earthquake Activity

City Distance Mag. Time & Date
Minimum magnitude displayed is 2.5.

Coastal Water Temperatures

Place Temperature

Stations

Nearby Weather Stations

Station Location Temp. Windchill Dew Point Humidity Wind Precip. Elev Updated Type